createdAt,value
2022-08-04T00:02:05.284Z,100.00
2022-08-04T00:04:31.684Z,100.00
2022-08-04T00:06:58.051Z,100.00
2022-08-04T00:09:24.519Z,99.79
2022-08-04T00:11:50.921Z,99.47
2022-08-04T00:14:17.387Z,98.70
2022-08-04T00:16:43.745Z,98.74
2022-08-04T00:19:10.129Z,98.62
2022-08-04T00:21:36.491Z,98.14
2022-08-04T00:24:11.330Z,97.66
2022-08-04T00:26:29.243Z,97.94
2022-08-04T00:28:55.647Z,98.87
2022-08-04T00:31:33.217Z,99.55
2022-08-04T00:33:48.479Z,100.00
2022-08-04T00:36:14.862Z,100.00
2022-08-04T00:38:41.238Z,99.33
2022-08-04T00:41:07.599Z,99.57
2022-08-04T00:43:34.071Z,100.00
2022-08-04T00:46:00.514Z,100.00
2022-08-04T00:48:26.937Z,100.00
2022-08-04T00:50:53.321Z,100.00
2022-08-04T00:53:19.686Z,100.00
2022-08-04T00:55:46.053Z,100.00
2022-08-04T00:58:12.446Z,100.00
2022-08-04T01:00:38.898Z,100.00
2022-08-04T01:03:05.332Z,98.31
2022-08-04T01:05:37.595Z,97.82
2022-08-04T01:07:58.089Z,98.24
2022-08-04T01:10:24.476Z,99.09
2022-08-04T01:12:50.877Z,98.80
2022-08-04T01:15:17.253Z,98.59
2022-08-04T01:17:43.720Z,98.68
2022-08-04T01:20:10.079Z,97.66
2022-08-04T01:22:36.465Z,96.99
2022-08-04T01:25:04.829Z,97.37
2022-08-04T01:27:29.301Z,97.56
2022-08-04T01:29:55.797Z,98.22
2022-08-04T01:32:26.062Z,98.92
2022-08-04T01:34:48.442Z,98.43
2022-08-04T01:37:14.883Z,97.81
2022-08-04T01:39:41.313Z,96.90
2022-08-04T01:42:09.525Z,96.96
2022-08-04T01:44:34.091Z,97.15
2022-08-04T01:47:00.463Z,97.42
2022-08-04T01:49:26.850Z,98.26
2022-08-04T01:51:53.271Z,98.81
2022-08-04T01:54:19.635Z,98.96
2022-08-04T01:56:46.031Z,99.64
2022-08-04T01:59:12.468Z,99.47
2022-08-04T02:01:39.001Z,98.27
2022-08-04T02:04:20.378Z,97.98
2022-08-04T02:06:31.764Z,98.70
2022-08-04T02:08:58.131Z,99.47
2022-08-04T02:11:24.533Z,99.32
2022-08-04T02:13:50.969Z,98.30
2022-08-04T02:16:17.335Z,97.72
2022-08-04T02:18:43.714Z,98.58
2022-08-04T02:21:10.092Z,98.98
2022-08-04T02:23:36.587Z,98.58
2022-08-04T02:26:02.959Z,97.65
2022-08-04T02:28:29.322Z,97.36
2022-08-04T02:30:55.694Z,97.25
2022-08-04T02:33:22.101Z,96.61
2022-08-04T02:35:48.559Z,96.76
2022-08-04T02:38:14.927Z,97.27
2022-08-04T02:40:41.298Z,97.39
2022-08-04T02:43:07.660Z,97.38
2022-08-04T02:45:34.025Z,97.42
2022-08-04T02:48:08.194Z,96.50
2022-08-04T02:50:28.945Z,96.76
2022-08-04T02:52:53.165Z,96.88
2022-08-04T02:55:19.611Z,96.68
2022-08-04T02:57:46.044Z,96.64
2022-08-04T03:00:12.510Z,96.93
2022-08-04T03:02:38.831Z,97.40
2022-08-04T03:05:05.341Z,97.05
2022-08-04T03:07:31.705Z,97.84
2022-08-04T03:09:58.208Z,97.90
2022-08-04T03:12:24.645Z,97.96
2022-08-04T03:14:51.029Z,98.14
2022-08-04T03:17:17.434Z,97.81
2022-08-04T03:19:43.838Z,98.07
2022-08-04T03:22:10.274Z,97.78
2022-08-04T03:24:36.704Z,97.63
2022-08-04T03:27:03.105Z,96.71
2022-08-04T03:29:36.030Z,96.58
2022-08-04T03:31:55.897Z,97.01
2022-08-04T03:34:22.313Z,97.79
2022-08-04T03:36:48.689Z,98.08
2022-08-04T03:39:15.128Z,98.41
2022-08-04T03:41:55.246Z,98.06
2022-08-04T03:44:08.006Z,97.97
2022-08-04T03:46:34.369Z,97.41
2022-08-04T03:49:00.757Z,97.00
2022-08-04T03:51:32.493Z,96.76
2022-08-04T03:53:53.545Z,96.53
2022-08-04T03:56:19.947Z,95.67
2022-08-04T03:58:46.336Z,95.40
2022-08-04T04:01:12.789Z,95.12
2022-08-04T04:03:39.185Z,94.84
2022-08-04T04:06:05.568Z,94.74
2022-08-04T04:08:31.963Z,94.09
2022-08-04T04:10:58.418Z,94.18
2022-08-04T04:13:24.856Z,92.98
2022-08-04T04:15:51.256Z,93.03
2022-08-04T04:18:17.625Z,92.52
2022-08-04T04:20:43.988Z,91.90
2022-08-04T04:23:11.072Z,91.54
2022-08-04T04:25:36.844Z,91.89
2022-08-04T04:28:46.123Z,91.46
2022-08-04T04:30:29.594Z,91.30
2022-08-04T04:32:55.965Z,90.81
2022-08-04T04:35:22.446Z,90.73
2022-08-04T04:37:49.277Z,90.86
2022-08-04T04:40:15.170Z,89.68
2022-08-04T04:42:41.565Z,88.46
2022-08-04T04:45:07.968Z,88.07
2022-08-04T04:48:09.200Z,88.90
2022-08-04T04:50:00.735Z,89.07
2022-08-04T04:52:27.106Z,88.82
2022-08-04T04:54:53.476Z,88.72
2022-08-04T04:57:20.141Z,88.50
2022-08-04T04:59:46.254Z,88.47
2022-08-04T05:02:12.641Z,88.71
2022-08-04T05:04:39.024Z,88.09
2022-08-04T05:07:05.403Z,87.85
2022-08-04T05:09:31.798Z,87.26
2022-08-04T05:11:58.207Z,86.79
2022-08-04T05:14:38.678Z,86.75
2022-08-04T05:16:50.950Z,85.44
2022-08-04T05:19:17.338Z,85.09
2022-08-04T05:21:43.856Z,84.45
2022-08-04T05:24:10.283Z,82.00
2022-08-04T05:26:36.661Z,77.71
2022-08-04T05:29:03.053Z,74.24
2022-08-04T05:31:29.442Z,73.06
2022-08-04T05:33:55.835Z,71.67
2022-08-04T05:36:39.996Z,68.86
2022-08-04T05:38:48.592Z,67.31
2022-08-04T05:41:14.965Z,64.71
2022-08-04T05:43:41.346Z,62.02
2022-08-04T05:46:07.776Z,60.58
2022-08-04T05:48:34.174Z,59.24
2022-08-04T05:51:01.287Z,58.88
2022-08-04T05:53:27.004Z,58.45
2022-08-04T05:55:58.523Z,57.76
2022-08-04T05:58:19.774Z,56.57
2022-08-04T06:00:51.707Z,57.65
2022-08-04T06:03:12.526Z,58.04
2022-08-04T06:05:38.953Z,62.06
2022-08-04T06:08:13.926Z,63.52
2022-08-04T06:10:31.694Z,65.85
2022-08-04T06:12:58.056Z,68.58
2022-08-04T06:15:25.320Z,68.94
2022-08-04T06:19:57.815Z,70.73
2022-08-04T06:20:17.854Z,71.40
2022-08-04T06:22:43.668Z,71.37
2022-08-04T06:25:10.042Z,71.97
2022-08-04T06:27:36.406Z,68.96
2022-08-04T06:30:02.767Z,62.67
2022-08-04T06:32:34.583Z,62.18
2022-08-04T06:34:55.500Z,63.39
2022-08-04T06:37:41.526Z,64.97
2022-08-04T06:39:48.337Z,66.31
2022-08-04T06:42:22.219Z,68.11
2022-08-04T06:44:41.141Z,68.62
2022-08-04T06:47:07.524Z,69.04
2022-08-04T06:49:44.157Z,69.23
2022-08-04T06:52:00.345Z,69.37
2022-08-04T06:54:26.720Z,70.16
2022-08-04T06:56:53.131Z,70.05
2022-08-04T06:59:19.499Z,68.41
2022-08-04T07:01:46.011Z,63.84
2022-08-04T07:04:12.332Z,65.79
2022-08-04T07:06:38.730Z,65.47
2022-08-04T07:09:05.097Z,62.72
2022-08-04T07:11:44.422Z,60.72
2022-08-04T07:13:57.927Z,58.96
2022-08-04T07:16:30.626Z,59.64
2022-08-04T07:18:50.741Z,57.98
2022-08-04T07:21:17.143Z,56.73
2022-08-04T07:23:43.506Z,52.94
2022-08-04T07:26:12.928Z,52.68
2022-08-04T07:28:36.429Z,53.49
2022-08-04T07:31:02.797Z,54.99
2022-08-04T07:33:29.186Z,55.24
2022-08-04T07:36:04.885Z,54.48
2022-08-04T07:38:27.462Z,53.68
2022-08-04T07:40:48.384Z,54.38
2022-08-04T07:43:14.818Z,52.06
2022-08-04T07:45:41.187Z,51.35
2022-08-04T07:48:07.547Z,48.31
2022-08-04T07:50:33.918Z,46.11
2022-08-04T07:53:53.486Z,48.31
2022-08-04T07:55:26.700Z,52.35
2022-08-04T07:57:53.083Z,54.93
2022-08-04T08:00:19.463Z,56.01
2022-08-04T08:02:45.844Z,53.19
2022-08-04T08:05:12.235Z,50.93
2022-08-04T08:07:38.605Z,48.55
2022-08-04T08:10:04.995Z,47.43
2022-08-04T08:12:38.549Z,45.27
2022-08-04T08:14:57.746Z,44.93
2022-08-04T08:17:24.209Z,45.73
2022-08-04T08:19:50.510Z,47.03
2022-08-04T08:22:16.898Z,46.34
2022-08-04T08:24:43.271Z,45.76
2022-08-04T08:27:09.635Z,44.83
2022-08-04T08:29:36.066Z,44.69
2022-08-04T08:32:07.693Z,44.87
2022-08-04T08:34:29.109Z,42.93
2022-08-04T08:36:55.230Z,43.40
2022-08-04T08:39:24.622Z,45.25
2022-08-04T08:41:51.737Z,46.78
2022-08-04T08:44:18.961Z,47.46
2022-08-04T08:46:49.366Z,47.67
2022-08-04T08:49:07.281Z,47.59
2022-08-04T08:51:33.715Z,46.10
2022-08-04T08:54:00.110Z,45.15
2022-08-04T08:56:31.364Z,44.61
2022-08-04T08:58:52.892Z,44.43
2022-08-04T09:01:19.437Z,44.02
2022-08-04T09:03:45.777Z,40.77
2022-08-04T09:06:12.193Z,40.41
2022-08-04T09:08:38.563Z,38.86
2022-08-04T09:11:04.939Z,37.65
2022-08-04T09:13:31.407Z,37.78
2022-08-04T09:15:57.834Z,37.72
2022-08-04T09:18:24.271Z,38.15
2022-08-04T09:20:50.634Z,37.49
2022-08-04T09:23:17.027Z,37.34
2022-08-04T09:25:43.472Z,35.91
2022-08-04T09:28:09.923Z,35.73
2022-08-04T09:30:36.260Z,37.23
2022-08-04T09:33:02.632Z,36.11
2022-08-04T09:35:29.005Z,34.92
2022-08-04T09:37:55.422Z,35.67
2022-08-04T09:40:31.256Z,34.87
2022-08-04T09:42:48.194Z,35.42
2022-08-04T09:45:17.865Z,35.59
2022-08-04T09:47:41.078Z,36.78
2022-08-04T09:50:07.328Z,37.43
2022-08-04T09:52:33.725Z,37.93
2022-08-04T09:55:00.155Z,38.20
2022-08-04T09:57:26.591Z,36.56
2022-08-04T09:59:52.969Z,34.60
2022-08-04T10:02:19.681Z,33.34
2022-08-04T10:04:45.811Z,35.07
2022-08-04T10:07:12.219Z,36.81
2022-08-04T10:09:38.575Z,37.73
2022-08-04T10:12:04.985Z,36.79
2022-08-04T10:14:31.412Z,35.68
2022-08-04T10:16:57.894Z,35.71
2022-08-04T10:19:24.258Z,35.97
2022-08-04T10:21:59.704Z,36.00
2022-08-04T10:24:17.009Z,36.51
2022-08-04T10:26:43.476Z,36.27
2022-08-04T10:29:09.861Z,34.64
2022-08-04T10:31:36.297Z,33.48
2022-08-04T10:34:02.678Z,33.28
2022-08-04T10:36:29.044Z,32.27
2022-08-04T10:38:55.474Z,30.92
2022-08-04T10:41:21.812Z,29.68
2022-08-04T10:43:48.202Z,28.79
2022-08-04T10:46:14.639Z,28.59
2022-08-04T10:48:41.078Z,27.60
2022-08-04T10:51:07.454Z,27.65
2022-08-04T10:53:33.826Z,25.38
2022-08-04T10:56:07.579Z,25.30
2022-08-04T10:58:46.937Z,25.37
2022-08-04T11:00:53.029Z,27.04
2022-08-04T11:03:19.438Z,28.59
2022-08-04T11:05:45.764Z,29.15
2022-08-04T11:08:15.333Z,29.91
2022-08-04T11:10:38.519Z,29.80
2022-08-04T11:13:04.891Z,30.27
2022-08-04T11:15:31.320Z,29.14
2022-08-04T11:17:57.683Z,30.02
2022-08-04T11:20:39.379Z,30.87
2022-08-04T11:22:50.522Z,31.17
2022-08-04T11:25:16.895Z,32.24
2022-08-04T11:27:43.258Z,32.91
2022-08-04T11:30:09.670Z,31.19
2022-08-04T11:32:36.147Z,31.79
2022-08-04T11:35:02.596Z,32.12
2022-08-04T11:37:29.016Z,32.34
2022-08-04T11:39:55.417Z,32.74
2022-08-04T11:42:21.815Z,32.12
2022-08-04T11:44:48.209Z,31.38
2022-08-04T11:47:14.577Z,30.50
2022-08-04T11:49:56.647Z,29.23
2022-08-04T11:52:07.405Z,29.59
2022-08-04T11:54:33.771Z,29.65
2022-08-04T11:57:00.180Z,30.09
2022-08-04T11:59:26.571Z,30.40
2022-08-04T12:01:53.117Z,30.06
2022-08-04T12:04:19.467Z,29.17
2022-08-04T12:06:57.021Z,28.58
2022-08-04T12:09:12.327Z,29.74
2022-08-04T12:11:38.766Z,30.48
2022-08-04T12:14:05.207Z,30.31
2022-08-04T12:16:31.564Z,31.09
2022-08-04T12:18:58.068Z,30.17
2022-08-04T12:21:24.435Z,30.42
2022-08-04T12:23:56.618Z,31.85
2022-08-04T12:26:17.174Z,31.56
2022-08-04T12:31:11.799Z,31.29
2022-08-04T12:33:41.392Z,31.46
2022-08-04T12:36:11.033Z,31.98
2022-08-04T12:38:29.233Z,32.99
2022-08-04T12:40:55.616Z,33.17
2022-08-04T12:43:22.015Z,33.11
2022-08-04T12:45:48.595Z,32.63
2022-08-04T12:48:17.914Z,32.38
2022-08-04T12:50:41.107Z,32.55
2022-08-04T12:53:07.536Z,32.19
2022-08-04T12:55:34.252Z,32.09
2022-08-04T12:58:00.384Z,32.45
2022-08-04T13:00:30.521Z,31.91
2022-08-04T13:02:53.145Z,32.35
2022-08-04T13:05:19.538Z,32.94
2022-08-04T13:07:45.940Z,32.74
2022-08-04T13:10:12.329Z,32.42
2022-08-04T13:12:38.693Z,31.82
2022-08-04T13:15:09.743Z,30.66
2022-08-04T13:17:31.501Z,30.62
2022-08-04T13:19:57.898Z,31.11
2022-08-04T13:22:26.589Z,31.64
2022-08-04T13:24:56.520Z,31.50
2022-08-04T13:27:17.164Z,31.37
2022-08-04T13:29:59.805Z,31.59
2022-08-04T13:32:10.036Z,31.70
2022-08-04T13:34:36.398Z,31.10
2022-08-04T13:37:02.767Z,31.94
2022-08-04T13:39:29.224Z,31.94
2022-08-04T13:41:59.183Z,31.10
2022-08-04T13:44:21.953Z,30.93
2022-08-04T13:46:50.752Z,31.10
2022-08-04T13:49:38.067Z,31.15
2022-08-04T13:51:58.381Z,31.63
2022-08-04T13:54:07.430Z,32.18
2022-08-04T13:56:33.803Z,31.99
2022-08-04T13:59:01.412Z,32.27
2022-08-04T14:01:35.587Z,32.40
2022-08-04T14:03:53.987Z,33.00
2022-08-04T14:06:19.337Z,32.90
2022-08-04T14:08:45.704Z,32.80
2022-08-04T14:12:10.799Z,32.69
2022-08-04T14:13:42.008Z,32.97
2022-08-04T14:16:04.983Z,32.02
2022-08-04T14:18:31.259Z,32.72
2022-08-04T14:20:57.649Z,32.17
2022-08-04T14:23:24.007Z,32.48
2022-08-04T14:25:50.392Z,32.64
2022-08-04T14:28:16.794Z,32.53
2022-08-04T14:30:43.157Z,33.05
2022-08-04T14:34:00.712Z,33.81
2022-08-04T14:35:38.380Z,33.77
2022-08-04T14:38:03.456Z,33.81
2022-08-04T14:40:30.341Z,33.41
2022-08-04T14:42:56.510Z,32.81
2022-08-04T14:45:21.449Z,31.74
2022-08-04T14:47:51.897Z,32.60
2022-08-04T14:50:14.193Z,32.75
2022-08-04T14:52:40.576Z,32.77
2022-08-04T14:55:06.941Z,31.84
2022-08-04T14:57:33.342Z,31.91
2022-08-04T15:00:02.397Z,32.36
2022-08-04T15:02:29.488Z,32.24
2022-08-04T15:04:52.465Z,32.43
2022-08-04T15:07:18.892Z,32.18
2022-08-04T15:09:45.280Z,33.03
2022-08-04T15:12:11.660Z,33.07
2022-08-04T15:14:38.493Z,33.68
2022-08-04T15:17:08.466Z,33.78
2022-08-04T15:19:30.835Z,33.89
2022-08-04T15:21:57.267Z,33.86
2022-08-04T15:24:23.997Z,33.49
2022-08-04T15:26:50.407Z,33.35
2022-08-04T15:29:17.111Z,34.19
2022-08-04T15:32:05.554Z,34.20
2022-08-04T15:34:09.727Z,33.81
2022-08-04T15:36:36.089Z,35.25
2022-08-04T15:39:02.569Z,35.45
2022-08-04T15:41:28.871Z,35.09
2022-08-04T15:43:55.773Z,34.78
2022-08-04T15:46:43.534Z,34.91
2022-08-04T15:48:48.070Z,35.35
2022-08-04T15:51:15.335Z,35.33
2022-08-04T15:54:02.528Z,35.73
2022-08-04T15:56:07.229Z,35.46
2022-08-04T15:58:33.607Z,35.18
2022-08-04T16:01:00.096Z,35.28
2022-08-04T16:03:58.448Z,35.56
2022-08-04T16:05:52.960Z,35.21
2022-08-04T16:08:19.338Z,35.08
2022-08-04T16:10:45.697Z,35.24
2022-08-04T16:13:12.091Z,35.30
2022-08-04T16:15:38.469Z,35.29
2022-08-04T16:18:04.840Z,35.06
2022-08-04T16:20:31.228Z,35.45
2022-08-04T16:22:57.626Z,35.09
2022-08-04T16:25:23.980Z,35.11
2022-08-04T16:27:50.354Z,35.28
2022-08-04T16:30:16.807Z,35.77
2022-08-04T16:32:43.189Z,35.64
2022-08-04T16:35:09.550Z,35.13
2022-08-04T16:37:35.940Z,34.72
2022-08-04T16:40:02.310Z,33.97
2022-08-04T16:42:28.743Z,34.60
2022-08-04T16:44:55.176Z,35.07
2022-08-04T16:47:22.959Z,35.37
2022-08-04T16:49:51.815Z,35.23
2022-08-04T16:52:14.503Z,34.92
2022-08-04T16:54:40.904Z,35.28
2022-08-04T16:57:07.332Z,35.60
2022-08-04T16:59:33.701Z,35.54
2022-08-04T17:02:00.134Z,35.48
2022-08-04T17:04:26.468Z,36.00
2022-08-04T17:06:52.864Z,35.94
2022-08-04T17:09:19.273Z,36.29
2022-08-04T17:11:45.639Z,36.10
2022-08-04T17:14:12.004Z,36.02
2022-08-04T17:16:38.367Z,36.21
2022-08-04T17:19:04.822Z,36.57
2022-08-04T17:21:31.450Z,36.88
2022-08-04T17:24:14.479Z,37.12
2022-08-04T17:26:23.938Z,36.83
2022-08-04T17:28:50.310Z,36.77
2022-08-04T17:31:16.701Z,37.20
2022-08-04T17:33:54.797Z,37.51
2022-08-04T17:36:09.487Z,37.93
2022-08-04T17:38:35.876Z,37.91
2022-08-04T17:41:11.656Z,38.14
2022-08-04T17:44:04.634Z,38.23
2022-08-04T17:45:56.956Z,38.82
2022-08-04T17:50:47.808Z,39.01
2022-08-04T17:53:14.273Z,39.59
2022-08-04T17:55:40.742Z,39.93
2022-08-04T17:58:11.769Z,39.85
2022-08-04T18:00:33.600Z,40.04
2022-08-04T18:03:00.054Z,40.30
2022-08-04T18:05:26.393Z,40.47
2022-08-04T18:08:46.070Z,40.67
2022-08-04T18:10:33.006Z,41.17
2022-08-04T18:12:45.556Z,41.71
2022-08-04T18:15:11.978Z,42.13
2022-08-04T18:18:19.744Z,41.71
2022-08-04T18:20:04.743Z,41.85
2022-08-04T18:22:31.133Z,41.96
2022-08-04T18:24:57.512Z,40.98
2022-08-04T18:27:24.326Z,42.20
2022-08-04T18:30:34.014Z,40.91
2022-08-04T18:32:16.726Z,41.76
2022-08-04T18:34:54.925Z,41.86
2022-08-04T18:38:06.492Z,42.31
2022-08-04T18:42:04.154Z,42.95
2022-08-04T18:44:28.649Z,44.49
2022-08-04T18:46:55.793Z,44.55
2022-08-04T18:50:59.272Z,44.51
2022-08-04T18:51:49.011Z,45.04
2022-08-04T18:54:14.318Z,45.58
2022-08-04T18:56:40.701Z,46.54
2022-08-04T18:59:10.148Z,47.64
2022-08-04T19:02:09.090Z,46.89
2022-08-04T19:04:00.142Z,48.39
2022-08-04T19:06:27.564Z,46.00
2022-08-04T19:08:52.815Z,45.51
2022-08-04T19:11:37.836Z,45.52
2022-08-04T19:13:45.544Z,46.79
2022-08-04T19:16:16.945Z,45.64
2022-08-04T19:18:38.327Z,45.40
2022-08-04T19:21:05.209Z,45.96
2022-08-04T19:24:10.955Z,46.94
2022-08-04T19:26:02.582Z,45.00
2022-08-04T19:28:23.853Z,44.49
2022-08-04T19:30:50.265Z,46.43
2022-08-04T19:33:16.634Z,49.64
2022-08-04T19:35:46.321Z,50.73
2022-08-04T19:38:09.387Z,51.53
2022-08-04T19:40:35.791Z,52.41
2022-08-04T19:43:14.250Z,52.69
2022-08-04T19:45:41.693Z,52.61
2022-08-04T19:48:17.031Z,52.48
2022-08-04T19:50:23.665Z,51.73
2022-08-04T19:52:52.218Z,52.49
2022-08-04T19:55:14.042Z,52.66
2022-08-04T19:57:41.356Z,52.95
2022-08-04T20:00:06.844Z,52.70
2022-08-04T20:02:33.208Z,52.29
2022-08-04T20:04:59.597Z,53.05
2022-08-04T20:07:26.189Z,54.63
2022-08-04T20:09:53.632Z,54.11
2022-08-04T20:12:18.804Z,54.41
2022-08-04T20:14:45.258Z,54.98
2022-08-04T20:17:11.671Z,53.99
2022-08-04T20:19:38.051Z,55.19
2022-08-04T20:22:04.407Z,53.40
2022-08-04T20:24:37.649Z,55.72
2022-08-04T20:26:57.152Z,57.02
2022-08-04T20:29:37.032Z,54.81
2022-08-04T20:31:49.905Z,56.07
2022-08-04T20:34:16.273Z,55.92
2022-08-04T20:36:50.045Z,58.44
2022-08-04T20:39:09.784Z,58.38
2022-08-04T20:41:36.694Z,56.85
2022-08-04T20:44:01.869Z,59.37
2022-08-04T20:46:29.210Z,60.47
2022-08-04T20:48:54.621Z,58.40
2022-08-04T20:51:32.145Z,58.37
2022-08-04T20:53:53.469Z,60.60
2022-08-04T20:56:19.383Z,60.95
2022-08-04T20:58:40.189Z,61.55
2022-08-04T21:01:06.587Z,62.06
2022-08-04T21:03:49.840Z,62.82
2022-08-04T21:05:59.301Z,62.85
2022-08-04T21:08:27.111Z,63.19
2022-08-04T21:10:52.067Z,63.50
2022-08-04T21:13:18.441Z,63.82
2022-08-04T21:15:58.888Z,63.76
2022-08-04T21:18:11.286Z,64.13
2022-08-04T21:20:42.715Z,63.95
2022-08-04T21:23:05.024Z,64.33
2022-08-04T21:25:30.475Z,64.65
2022-08-04T21:27:58.768Z,63.65
2022-08-04T21:30:25.368Z,63.35
2022-08-04T21:32:49.586Z,63.02
2022-08-04T21:35:16.298Z,63.57
2022-08-04T21:37:58.165Z,62.63
2022-08-04T21:40:14.504Z,62.98
2022-08-04T21:42:35.191Z,62.76
2022-08-04T21:45:03.445Z,62.46
2022-08-04T21:47:45.802Z,62.49
2022-08-04T21:52:20.822Z,63.94
2022-08-04T21:54:47.196Z,64.04
2022-08-04T21:57:13.691Z,64.15
2022-08-04T21:59:45.310Z,63.81
2022-08-04T22:02:06.549Z,64.30
2022-08-04T22:04:32.823Z,64.01
2022-08-04T22:07:02.766Z,64.36
2022-08-04T22:09:25.613Z,64.31
2022-08-04T22:11:52.268Z,64.73
2022-08-04T22:14:27.360Z,64.38
2022-08-04T22:16:44.736Z,64.92
2022-08-04T22:19:11.110Z,65.07
2022-08-04T22:21:39.256Z,66.37
2022-08-04T22:24:03.866Z,66.49
2022-08-04T22:26:30.271Z,67.08
2022-08-04T22:28:56.630Z,67.93
2022-08-04T22:31:24.758Z,68.18
2022-08-04T22:33:54.763Z,68.50
2022-08-04T22:36:15.777Z,68.82
2022-08-04T22:38:48.605Z,69.45
2022-08-04T22:41:08.519Z,68.89
2022-08-04T22:43:35.010Z,69.67
2022-08-04T22:46:01.811Z,69.76
2022-08-04T22:48:27.755Z,70.69
2022-08-04T22:50:54.175Z,70.97
2022-08-04T22:53:20.530Z,71.04
2022-08-04T22:56:06.880Z,71.12
2022-08-04T22:58:13.384Z,70.82
2022-08-04T23:00:40.137Z,70.51
2022-08-04T23:03:06.121Z,71.65
2022-08-04T23:05:35.723Z,72.06
2022-08-04T23:07:58.844Z,72.71
2022-08-04T23:10:25.226Z,73.23
2022-08-04T23:12:51.581Z,73.59
2022-08-04T23:15:18.174Z,73.92
2022-08-04T23:17:47.979Z,73.96
2022-08-04T23:20:22.899Z,73.68
2022-08-04T23:22:41.836Z,73.23
2022-08-04T23:25:03.970Z,73.46
2022-08-04T23:27:33.859Z,73.01
2022-08-04T23:29:56.271Z,73.87
2022-08-04T23:32:22.699Z,72.76
2022-08-04T23:34:49.061Z,72.03
2022-08-04T23:37:15.809Z,72.69
2022-08-04T23:39:42.302Z,73.22
2022-08-04T23:42:08.168Z,73.78
2022-08-04T23:44:34.532Z,73.50
2022-08-04T23:47:00.988Z,73.54
2022-08-04T23:49:43.888Z,73.20
2022-08-04T23:51:54.299Z,72.69
2022-08-04T23:54:25.854Z,72.30
2022-08-04T23:56:46.393Z,71.60
2022-08-04T23:59:18.015Z,71.71
